Terminal Aerodrome Forecast
Issued by NWS

Home | Current Version | Previous Version | Text Only | Print | Product List | Glossary On
Versions: 1 2 3 4 5 6 7 8 9 10 11 12 13 14 15 16 17
781
FTUS45 KABQ 262324
TAFGUP
TAF
KGUP 262324Z 2700/2724 27012G20KT P6SM SCT060
     FM270130 VRB06KT P6SM SCT250
     FM271600 22012G18KT P6SM SCT090 SCT200
     FM272000 23015G25KT P6SM VCSH SCT050 BKN090=

USA.gov is the U.S. government's official web portal to all federal, state and local government web resources and services.